Time;durP1;ratioP1;P1;durP2;ratioP2;P2;SDS_P1;SDS_P2;PMS_P1;PMS_P2;Temp;Humidity;BMP_temperature;BMP_pressure;BME280_temperature;BME280_humidity;BME280_pressure;Samples;Min_cycle;Max_cycle;Signal;HPM_P1;HPM_P2
2021/07/22 00:00:27;;;;;;;13.50;7.40;;;;;;;28.36;56.40;100552.50;5009137;28;20038;-67
2021/07/22 00:02:54;;;;;;;12.80;7.35;;;;;;;28.34;56.54;100542.72;5011082;28;20058;-67
2021/07/22 00:05:24;;;;;;;12.88;7.40;;;;;;;28.33;56.24;100533.72;5006460;28;20348;-66
2021/07/22 00:07:52;;;;;;;13.07;7.38;;;;;;;28.33;56.60;100530.13;5009103;28;20072;-67
2021/07/22 00:10:21;;;;;;;12.93;7.50;;;;;;;28.37;56.64;100532.53;5007428;28;20053;-67
2021/07/22 00:12:48;;;;;;;12.63;7.60;;;;;;;28.34;56.44;100523.72;5010089;28;20462;-67
2021/07/22 00:15:15;;;;;;;12.90;7.63;;;;;;;28.33;56.41;100531.00;5009094;28;20050;-66
2021/07/22 00:17:42;;;;;;;16.13;7.38;;;;;;;28.27;57.02;100509.66;5007385;28;20057;-66
2021/07/22 00:20:11;;;;;;;13.82;6.60;;;;;;;28.20;56.92;100520.97;5007763;28;20048;-67
2021/07/22 00:22:40;;;;;;;13.15;7.93;;;;;;;28.21;57.22;100515.47;5007418;28;20415;-67
2021/07/22 00:25:09;;;;;;;12.70;7.90;;;;;;;28.22;56.80;100510.91;5003248;28;20048;-67
2021/07/22 00:27:37;;;;;;;14.18;7.75;;;;;;;28.21;56.99;100515.47;5009231;28;20049;-67
2021/07/22 00:30:05;;;;;;;22.95;7.97;;;;;;;28.21;57.29;100507.31;5007242;28;20053;-67
2021/07/22 00:32:32;;;;;;;12.60;7.60;;;;;;;28.19;57.14;100495.66;5008850;28;20056;-67
2021/07/22 00:35:00;;;;;;;13.63;7.38;;;;;;;28.18;57.67;100493.03;5008664;28;20053;-66
2021/07/22 00:37:27;;;;;;;10.73;6.90;;;;;;;28.18;57.85;100493.91;5008342;28;20044;-67
2021/07/22 00:39:57;;;;;;;12.63;7.47;;;;;;;28.16;57.78;100495.84;5009665;28;20049;-67
2021/07/22 00:42:24;;;;;;;13.52;7.43;;;;;;;28.13;58.08;100487.88;5008737;28;20411;-67
2021/07/22 00:44:51;;;;;;;13.38;7.78;;;;;;;28.14;58.57;100492.38;5006892;28;20038;-67
2021/07/22 00:47:19;;;;;;;12.95;8.00;;;;;;;28.13;58.56;100496.88;5007830;28;20403;-67
2021/07/22 00:49:50;;;;;;;11.70;7.93;;;;;;;28.10;58.09;100494.34;5010410;28;20045;-67
2021/07/22 00:52:17;;;;;;;14.23;8.93;;;;;;;28.05;58.10;100490.16;5007782;28;20399;-67
2021/07/22 00:54:45;;;;;;;11.32;7.70;;;;;;;28.02;58.68;100482.22;5009806;28;20088;-67
2021/07/22 00:57:13;;;;;;;14.65;7.90;;;;;;;28.05;58.28;100484.75;5006896;28;20539;-67
2021/07/22 00:59:41;;;;;;;12.82;7.80;;;;;;;28.05;58.36;100480.19;5010221;28;20045;-67
2021/07/22 01:02:08;;;;;;;11.02;7.47;;;;;;;28.05;58.78;100476.59;5003608;28;20050;-67
2021/07/22 01:04:36;;;;;;;11.27;7.32;;;;;;;28.06;58.36;100478.34;5006460;28;20038;-66
2021/07/22 01:07:04;;;;;;;12.05;7.93;;;;;;;28.07;57.88;100486.41;4990282;28;20077;-67
2021/07/22 01:09:31;;;;;;;11.88;7.65;;;;;;;28.05;57.56;100482.03;5003758;28;20053;-67
2021/07/22 01:11:59;;;;;;;14.85;7.22;;;;;;;28.05;57.78;100473.88;5008187;28;20042;-67
2021/07/22 01:14:28;;;;;;;10.10;7.20;;;;;;;28.05;57.57;100477.47;5008410;28;20050;-68
2021/07/22 01:16:55;;;;;;;14.70;8.25;;;;;;;28.07;57.69;100467.41;4989965;28;20046;-67
2021/07/22 01:19:23;;;;;;;13.95;8.45;;;;;;;28.08;57.98;100484.56;5008703;28;20042;-67
2021/07/22 01:21:52;;;;;;;14.00;8.35;;;;;;;28.07;57.45;100471.94;4993370;28;20048;-67
2021/07/22 01:24:19;;;;;;;13.13;7.82;;;;;;;28.07;57.47;100477.38;5013958;28;20045;-67
2021/07/22 01:26:46;;;;;;;13.30;8.30;;;;;;;28.07;57.47;100469.25;5013013;28;20046;-67
2021/07/22 01:29:14;;;;;;;12.30;7.78;;;;;;;28.07;57.09;100480.09;5013539;28;20056;-67
2021/07/22 01:31:42;;;;;;;14.43;8.38;;;;;;;28.06;57.39;100462.94;4994663;28;20849;-66
2021/07/22 01:34:09;;;;;;;13.35;7.45;;;;;;;28.06;56.76;100472.91;5014249;28;20082;-67
2021/07/22 01:36:36;;;;;;;11.65;6.90;;;;;;;28.07;57.12;100480.09;5012342;28;20046;-67
2021/07/22 01:39:06;;;;;;;14.73;7.63;;;;;;;28.04;57.20;100473.00;5011021;28;20042;-67
2021/07/22 01:41:37;;;;;;;11.75;7.57;;;;;;;28.04;57.04;100483.88;5011777;28;20116;-67
2021/07/22 01:44:05;;;;;;;18.08;7.88;;;;;;;28.01;57.65;100481.34;5010581;28;20117;-67
2021/07/22 01:46:32;;;;;;;15.80;8.10;;;;;;;28.01;57.50;100483.19;5008878;28;20038;-66
2021/07/22 01:48:59;;;;;;;17.02;7.45;;;;;;;27.97;57.85;100479.78;5011805;28;20121;-67
2021/07/22 01:51:26;;;;;;;14.55;7.70;;;;;;;27.96;58.14;100490.75;5012171;28;20045;-67
2021/07/22 01:53:54;;;;;;;10.05;7.00;;;;;;;27.94;57.77;100495.38;5006756;28;20046;-68
2021/07/22 01:56:23;;;;;;;13.55;7.90;;;;;;;27.94;57.64;100493.53;5013761;28;20038;-67
2021/07/22 01:58:50;;;;;;;12.70;7.32;;;;;;;27.90;57.83;100488.38;5010403;28;20046;-67
2021/07/22 02:01:17;;;;;;;14.38;8.10;;;;;;;27.86;58.11;100497.69;5013050;28;20041;-66
2021/07/22 02:03:45;;;;;;;12.18;7.47;;;;;;;27.86;58.08;100494.97;5010934;28;20049;-67
2021/07/22 02:06:12;;;;;;;11.95;8.50;;;;;;;27.87;58.19;100492.16;5012310;28;20054;-67
2021/07/22 02:08:39;;;;;;;13.02;7.53;;;;;;;27.85;57.76;100488.66;5010283;28;20054;-67
2021/07/22 02:11:06;;;;;;;16.58;8.23;;;;;;;27.87;57.97;100496.72;5007724;28;20046;-67
2021/07/22 02:13:35;;;;;;;12.43;7.88;;;;;;;27.86;57.94;100494.97;5007357;28;20042;-66
2021/07/22 02:16:07;;;;;;;13.95;8.40;;;;;;;27.84;58.07;100495.06;5012832;28;20434;-66
2021/07/22 02:18:34;;;;;;;12.88;7.20;;;;;;;27.82;58.62;100493.41;5011328;28;20105;-67
2021/07/22 02:21:05;;;;;;;14.23;7.68;;;;;;;27.81;58.46;100510.66;5011169;28;20034;-67
2021/07/22 02:23:33;;;;;;;13.00;7.82;;;;;;;27.77;58.63;100493.66;5012603;28;20104;-67
2021/07/22 02:26:03;;;;;;;13.13;7.68;;;;;;;27.78;58.50;100503.56;5010185;28;20427;-67
2021/07/22 02:28:30;;;;;;;14.10;7.82;;;;;;;27.79;58.17;100507.16;5011124;28;20137;-66
2021/07/22 02:31:00;;;;;;;11.15;7.68;;;;;;;27.79;58.39;100499.00;5010963;28;20044;-67
2021/07/22 02:33:27;;;;;;;12.13;7.88;;;;;;;27.79;57.88;100504.44;5010235;28;20046;-67
2021/07/22 02:35:56;;;;;;;14.75;7.95;;;;;;;27.77;57.94;100504.53;5009785;28;20046;-67
2021/07/22 02:38:23;;;;;;;13.23;8.27;;;;;;;27.79;58.28;100509.88;5012210;28;20034;-67
2021/07/22 02:40:51;;;;;;;11.05;7.70;;;;;;;27.79;58.25;100513.44;5011685;28;20049;-67
2021/07/22 02:43:18;;;;;;;14.15;7.63;;;;;;;27.75;57.88;100515.50;5012663;28;20042;-67
2021/07/22 02:45:46;;;;;;;15.35;8.25;;;;;;;27.72;58.26;100512.94;5010362;28;20046;-67
2021/07/22 02:48:15;;;;;;;10.93;7.00;;;;;;;27.70;58.54;100511.28;5007296;28;20546;-67
2021/07/22 02:50:42;;;;;;;12.23;7.82;;;;;;;27.68;58.85;100519.53;5010479;28;20061;-67
2021/07/22 02:53:10;;;;;;;13.35;7.97;;;;;;;27.67;59.08;100516.91;5010616;28;20054;-67
2021/07/22 02:55:38;;;;;;;14.38;7.32;;;;;;;27.66;59.59;100521.44;5011429;28;20499;-66
2021/07/22 02:58:06;;;;;;;12.65;7.13;;;;;;;27.66;59.34;100520.56;4989267;28;20400;-66
2021/07/22 03:00:34;;;;;;;14.95;7.65;;;;;;;27.66;59.87;100526.88;4991161;28;20068;-67
2021/07/22 03:03:02;;;;;;;13.52;7.72;;;;;;;27.64;59.48;100519.78;4992512;28;20049;-67
2021/07/22 03:05:32;;;;;;;12.27;7.35;;;;;;;27.63;59.87;100524.38;4991466;28;20035;-67
2021/07/22 03:08:01;;;;;;;13.40;8.23;;;;;;;27.62;59.47;100513.59;4991935;28;20460;-67
2021/07/22 03:10:28;;;;;;;11.05;7.45;;;;;;;27.59;59.83;100522.78;4991581;28;20121;-67
2021/07/22 03:12:56;;;;;;;12.90;8.32;;;;;;;27.59;59.68;100519.19;4991846;28;20042;-67
2021/07/22 03:15:26;;;;;;;11.95;8.15;;;;;;;27.60;60.32;100507.38;4989493;28;20050;-67
2021/07/22 03:17:54;;;;;;;13.48;7.53;;;;;;;27.59;60.40;100516.47;4990021;28;20039;-67
2021/07/22 03:20:21;;;;;;;10.70;7.65;;;;;;;27.62;60.60;100521.72;4989869;28;20050;-67
2021/07/22 03:22:50;;;;;;;12.85;7.00;;;;;;;27.65;60.70;100526.97;4991485;28;20501;-67
2021/07/22 03:25:18;;;;;;;16.27;7.90;;;;;;;27.61;60.81;100518.16;4988554;28;20541;-67
2021/07/22 03:27:45;;;;;;;14.35;8.27;;;;;;;27.59;60.71;100511.91;4992307;28;20052;-67
2021/07/22 03:30:14;;;;;;;12.05;7.72;;;;;;;27.59;61.14;100517.34;4991503;28;20042;-66
2021/07/22 03:32:41;;;;;;;14.35;7.95;;;;;;;27.62;61.02;100524.44;4990290;28;20046;-67
2021/07/22 03:35:10;;;;;;;18.58;8.40;;;;;;;27.68;60.72;100532.22;4990166;28;20051;-66
2021/07/22 03:37:37;;;;;;;16.58;7.90;;;;;;;27.71;60.77;100529.31;4990454;28;20113;-66
2021/07/22 03:40:07;;;;;;;14.35;7.50;;;;;;;27.80;60.47;100531.50;4991230;28;20110;-67
2021/07/22 03:42:36;;;;;;;17.00;7.72;;;;;;;27.88;60.52;100539.19;4991916;28;20038;-67
2021/07/22 03:45:03;;;;;;;13.63;7.78;;;;;;;27.96;60.44;100534.19;4987540;28;21100;-67
2021/07/22 03:47:30;;;;;;;14.00;7.90;;;;;;;28.02;60.44;100521.09;4987619;28;20500;-67
2021/07/22 03:49:58;;;;;;;11.18;7.40;;;;;;;28.11;60.23;100533.22;4988961;28;20832;-67
2021/07/22 03:52:25;;;;;;;13.95;8.40;;;;;;;28.19;60.50;100520.09;4991159;28;20046;-68
2021/07/22 03:54:52;;;;;;;13.45;7.88;;;;;;;28.30;60.20;100531.16;4990307;28;20053;-67
2021/07/22 03:57:21;;;;;;;11.45;7.72;;;;;;;28.40;59.77;100535.09;4989569;28;20090;-67
2021/07/22 03:59:50;;;;;;;13.40;8.55;;;;;;;28.46;58.84;100523.84;4990552;28;20050;-66
2021/07/22 04:02:18;;;;;;;12.77;7.53;;;;;;;28.53;58.46;100538.78;5007545;28;20073;-67
2021/07/22 04:04:45;;;;;;;12.82;7.68;;;;;;;28.62;58.64;100537.31;5009780;28;20038;-67
2021/07/22 04:07:15;;;;;;;11.57;7.40;;;;;;;28.70;57.98;100539.56;5009128;28;20411;-66
2021/07/22 04:09:42;;;;;;;14.32;7.90;;;;;;;28.78;57.51;100529.09;4994939;28;20483;-67
2021/07/22 04:12:11;;;;;;;12.15;7.38;;;;;;;28.90;57.51;100541.91;4985441;28;20042;-66
2021/07/22 04:14:40;;;;;;;14.07;7.43;;;;;;;29.01;56.95;100533.09;4990449;28;20049;-67
2021/07/22 04:17:13;;;;;;;12.98;7.55;;;;;;;29.10;57.19;100535.19;4987415;28;20117;-67
2021/07/22 04:19:40;;;;;;;13.68;7.32;;;;;;;29.29;56.87;100546.63;4964439;28;20062;-67
2021/07/22 04:22:08;;;;;;;13.70;6.88;;;;;;;29.42;56.56;100539.44;4987538;28;20551;-66
2021/07/22 04:24:36;;;;;;;18.42;7.88;;;;;;;29.49;56.58;100538.06;4990600;28;20188;-67
2021/07/22 04:27:03;;;;;;;12.98;7.70;;;;;;;29.53;55.93;100542.34;4987602;28;20057;-69
2021/07/22 04:29:31;;;;;;;11.88;6.80;;;;;;;29.63;55.97;100534.41;4988758;28;20388;-67
2021/07/22 04:32:01;;;;;;;15.98;7.35;;;;;;;29.75;55.94;100530.84;4989390;28;20042;-67
2021/07/22 04:34:29;;;;;;;14.52;7.15;;;;;;;29.84;55.86;100532.09;4988411;28;20500;-67
2021/07/22 04:36:56;;;;;;;12.93;6.93;;;;;;;29.95;55.32;100524.09;4990947;28;20404;-67
2021/07/22 04:39:24;;;;;;;11.77;7.05;;;;;;;30.09;54.89;100533.06;4989051;28;20042;-68
2021/07/22 04:41:51;;;;;;;18.58;6.60;;;;;;;30.22;54.49;100524.03;4987894;28;20042;-68
2021/07/22 04:44:19;;;;;;;11.07;6.72;;;;;;;30.29;54.46;100523.50;4984983;28;20046;-66
2021/07/22 04:46:48;;;;;;;12.65;7.22;;;;;;;30.42;53.89;100523.50;4989987;28;20077;-66
2021/07/22 04:49:17;;;;;;;16.23;6.32;;;;;;;30.54;53.86;100525.38;4977423;28;20042;-67
2021/07/22 04:51:45;;;;;;;13.85;6.60;;;;;;;30.73;53.60;100514.91;4990309;28;20093;-67
2021/07/22 04:54:12;;;;;;;13.20;7.13;;;;;;;30.88;53.04;100532.03;4981204;28;20120;-67
2021/07/22 04:56:40;;;;;;;17.15;7.45;;;;;;;31.02;52.28;100517.38;4988225;28;20416;-67
2021/07/22 04:59:07;;;;;;;14.50;7.05;;;;;;;31.16;51.98;100523.59;4988412;28;20100;-67
2021/07/22 05:01:35;;;;;;;12.82;6.65;;;;;;;31.32;51.16;100517.00;4989954;28;20034;-67
2021/07/22 05:04:05;;;;;;;13.85;6.50;;;;;;;31.39;51.01;100527.34;4987831;28;20077;-67
2021/07/22 05:06:37;;;;;;;12.70;6.45;;;;;;;31.64;50.76;100523.66;4967312;28;20047;-67
2021/07/22 05:09:04;;;;;;;10.93;6.35;;;;;;;31.91;50.22;100528.88;4977889;28;20097;-67
2021/07/22 05:11:32;;;;;;;12.05;6.70;;;;;;;32.13;49.27;100525.34;4984247;28;20057;-68
2021/07/22 05:13:59;;;;;;;12.80;6.45;;;;;;;32.31;49.45;100524.81;4981019;28;20074;-68
2021/07/22 05:16:27;;;;;;;9.80;6.13;;;;;;;32.34;48.95;100513.66;4981731;28;20572;-68
2021/07/22 05:18:54;;;;;;;13.70;6.35;;;;;;;32.54;48.45;100517.53;4984522;28;20054;-67
2021/07/22 05:21:21;;;;;;;13.98;7.32;;;;;;;32.68;48.01;100522.81;4982977;28;20041;-67
2021/07/22 05:23:51;;;;;;;11.38;7.18;;;;;;;32.94;47.68;100525.31;4983128;28;20062;-68
2021/07/22 05:26:18;;;;;;;11.98;5.93;;;;;;;33.26;46.77;100523.56;4979915;28;20043;-68
2021/07/22 05:28:46;;;;;;;12.93;6.63;;;;;;;33.53;46.19;100517.66;4980797;28;20047;-67
2021/07/22 05:31:13;;;;;;;11.43;6.28;;;;;;;33.65;45.50;100524.81;4980844;28;20047;-67
2021/07/22 05:33:41;;;;;;;12.40;6.00;;;;;;;33.73;44.92;100522.34;4979179;28;20043;-68
2021/07/22 05:36:10;;;;;;;11.20;6.35;;;;;;;33.74;44.76;100521.31;4981180;28;20050;-68
2021/07/22 05:38:38;;;;;;;13.23;6.68;;;;;;;33.87;44.87;100516.53;4978985;28;20046;-68
2021/07/22 05:41:09;;;;;;;9.35;6.25;;;;;;;34.14;44.43;100520.63;4979129;28;20034;-67
2021/07/22 05:43:37;;;;;;;10.98;6.50;;;;;;;34.35;44.27;100525.16;4979300;28;20419;-68
2021/07/22 05:46:05;;;;;;;11.45;6.30;;;;;;;34.55;44.21;100523.41;4980768;28;20531;-68
2021/07/22 05:48:32;;;;;;;13.23;6.28;;;;;;;34.81;43.65;100531.22;4981681;28;20508;-68
2021/07/22 05:51:03;;;;;;;10.60;5.93;;;;;;;34.96;42.69;100527.13;4981829;28;20047;-67
2021/07/22 05:53:30;;;;;;;12.25;5.90;;;;;;;35.07;42.37;100519.63;4979986;28;20049;-69
2021/07/22 05:55:59;;;;;;;9.35;5.97;;;;;;;35.03;42.43;100525.56;4980752;28;20412;-68
2021/07/22 05:58:29;;;;;;;11.95;6.05;;;;;;;35.24;42.10;100542.00;4979608;28;20050;-68
2021/07/22 06:00:56;;;;;;;12.43;6.07;;;;;;;35.31;41.82;100534.94;4982972;28;20051;-67
2021/07/22 06:03:23;;;;;;;10.57;5.95;;;;;;;35.34;41.86;100532.75;4987444;28;20063;-67
2021/07/22 06:05:51;;;;;;;12.15;6.57;;;;;;;35.42;41.72;100532.94;4989967;28;20050;-67
2021/07/22 06:08:18;;;;;;;12.13;6.25;;;;;;;35.52;41.07;100528.31;4992772;28;20085;-66
2021/07/22 06:10:46;;;;;;;9.80;6.30;;;;;;;35.34;40.68;100543.75;4997561;28;20034;-66
2021/07/22 06:13:14;;;;;;;11.10;6.30;;;;;;;35.51;40.82;100537.56;4982836;28;20057;-67
2021/07/22 06:15:45;;;;;;;10.38;6.13;;;;;;;35.81;40.57;100539.38;4977613;28;20043;-67
2021/07/22 06:18:12;;;;;;;11.25;6.45;;;;;;;36.08;39.92;100543.28;4983894;28;20044;-67
2021/07/22 06:20:40;;;;;;;14.02;6.32;;;;;;;36.16;40.12;100525.06;4987461;28;20031;-67
2021/07/22 06:23:07;;;;;;;10.13;6.30;;;;;;;36.11;39.83;100541.09;4993552;28;20045;-67
2021/07/22 06:25:35;;;;;;;9.15;5.43;;;;;;;35.81;39.87;100531.13;4992027;28;20844;-68
2021/07/22 06:28:03;;;;;;;10.70;6.53;;;;;;;35.82;40.18;100535.63;4991559;28;20038;-67
2021/07/22 06:30:32;;;;;;;11.68;6.60;;;;;;;35.99;39.91;100535.91;4993013;28;20045;-67
2021/07/22 06:33:01;;;;;;;13.32;6.18;;;;;;;35.97;39.54;100538.81;4987557;28;20097;-68
2021/07/22 06:35:28;;;;;;;14.43;6.32;;;;;;;35.96;39.53;100542.59;4984370;28;20121;-67
2021/07/22 06:37:55;;;;;;;12.88;6.70;;;;;;;36.00;39.49;100548.66;4985605;28;20512;-68
2021/07/22 06:40:23;;;;;;;11.57;6.18;;;;;;;36.14;39.53;100551.84;4992068;28;20062;-68
2021/07/22 06:42:50;;;;;;;11.80;6.68;;;;;;;36.13;39.55;100551.97;4992747;28;20053;-67
2021/07/22 06:45:17;;;;;;;9.50;5.90;;;;;;;36.18;39.49;100556.03;4993247;28;20042;-67
2021/07/22 06:47:45;;;;;;;14.85;7.38;;;;;;;36.37;39.16;100546.03;4992310;28;20053;-67
2021/07/22 06:50:14;;;;;;;13.45;6.32;;;;;;;36.39;38.43;100547.63;4992724;28;20053;-67
2021/07/22 06:52:41;;;;;;;11.82;7.30;;;;;;;36.24;38.61;100563.72;4991494;28;20054;-67
2021/07/22 06:55:09;;;;;;;11.05;6.72;;;;;;;36.25;38.46;100565.44;4992867;28;20050;-67
2021/07/22 06:57:37;;;;;;;16.33;7.50;;;;;;;36.23;38.79;100562.00;4992698;28;20053;-68
2021/07/22 07:00:05;;;;;;;11.43;6.97;;;;;;;36.20;38.73;100555.91;4992506;28;20058;-67
2021/07/22 07:02:32;;;;;;;13.38;6.70;;;;;;;36.29;38.67;100549.53;4993909;28;20398;-68
2021/07/22 07:05:00;;;;;;;11.35;6.38;;;;;;;36.21;38.16;100552.16;4992885;28;20046;-67
2021/07/22 07:07:28;;;;;;;10.85;6.85;;;;;;;36.06;39.00;100553.56;4992687;28;20077;-67
2021/07/22 07:09:56;;;;;;;10.95;6.30;;;;;;;36.18;38.86;100560.69;4980796;28;20039;-68
2021/07/22 07:12:23;;;;;;;12.68;6.25;;;;;;;36.43;38.54;100548.22;4980829;28;20497;-67
2021/07/22 07:14:50;;;;;;;11.55;6.70;;;;;;;36.46;37.77;100554.28;4992976;28;20042;-68
2021/07/22 07:17:18;;;;;;;13.35;6.85;;;;;;;36.47;37.31;100571.66;4992151;28;20046;-68
2021/07/22 07:19:45;;;;;;;12.68;7.47;;;;;;;36.56;37.09;100579.03;4991535;28;20496;-68
2021/07/22 07:22:12;;;;;;;13.00;6.05;;;;;;;36.71;36.57;100572.94;4991618;28;20054;-68
2021/07/22 07:24:42;;;;;;;11.88;6.50;;;;;;;36.87;36.49;100571.44;4991345;28;20140;-68
2021/07/22 07:27:09;;;;;;;16.35;6.90;;;;;;;36.83;36.23;100570.00;4990141;28;20035;-67
2021/07/22 07:29:37;;;;;;;12.90;7.00;;;;;;;36.63;36.70;100572.78;4992232;28;20393;-69
2021/07/22 07:32:05;;;;;;;14.52;6.82;;;;;;;36.70;36.61;100581.34;4992114;28;20078;-69
2021/07/22 07:34:32;;;;;;;13.70;6.80;;;;;;;36.73;36.21;100575.56;4990848;28;20042;-69
2021/07/22 07:36:59;;;;;;;14.30;6.80;;;;;;;36.69;36.43;100580.47;4991921;28;20038;-67
2021/07/22 07:39:27;;;;;;;10.32;6.30;;;;;;;36.80;36.58;100575.81;4992187;28;20038;-67
2021/07/22 07:41:55;;;;;;;18.20;7.72;;;;;;;36.92;36.66;100581.00;4989846;28;20042;-68
2021/07/22 07:44:23;;;;;;;16.08;6.45;;;;;;;36.95;36.62;100577.97;4991255;28;20053;-68
2021/07/22 07:46:50;;;;;;;12.18;6.03;;;;;;;37.02;36.43;100562.53;4992791;28;20134;-68
2021/07/22 07:49:18;;;;;;;16.48;6.72;;;;;;;37.03;36.05;100588.19;4991446;28;20042;-68
2021/07/22 07:51:45;;;;;;;10.73;6.75;;;;;;;37.00;35.72;100580.25;4990233;28;20053;-67
2021/07/22 07:54:13;;;;;;;12.95;6.13;;;;;;;36.99;35.14;100578.50;4992367;28;20048;-67
2021/07/22 07:56:40;;;;;;;12.60;6.80;;;;;;;37.00;35.16;100591.25;4991294;28;20050;-67
2021/07/22 07:59:09;;;;;;;15.77;6.97;;;;;;;37.09;35.31;100585.69;4988577;28;20042;-67
2021/07/22 08:01:36;;;;;;;10.80;6.47;;;;;;;37.03;35.51;100578.03;4991258;28;20065;-68
2021/07/22 08:04:04;;;;;;;14.23;6.75;;;;;;;37.17;35.34;100600.63;4987719;28;20043;-68
2021/07/22 08:06:31;;;;;;;13.25;6.40;;;;;;;37.28;35.34;100597.72;4991077;28;20050;-68
2021/07/22 08:08:58;;;;;;;14.15;6.72;;;;;;;37.42;34.83;100591.66;4991330;28;20038;-68
2021/07/22 08:11:26;;;;;;;13.27;7.20;;;;;;;37.43;34.44;100587.91;4990525;28;20117;-67
2021/07/22 08:13:53;;;;;;;15.57;6.57;;;;;;;37.34;33.79;100600.72;4991827;28;20047;-67
2021/07/22 08:16:23;;;;;;;13.32;6.63;;;;;;;37.17;33.85;100606.16;4991317;28;20432;-67
2021/07/22 08:18:51;;;;;;;13.63;6.45;;;;;;;37.27;33.99;100591.34;4990926;28;20057;-68
2021/07/22 08:21:19;;;;;;;13.48;6.80;;;;;;;37.26;33.90;100602.50;4991762;28;20053;-67
2021/07/22 08:23:48;;;;;;;12.43;5.82;;;;;;;37.25;33.92;100576.84;4991221;28;20061;-67
2021/07/22 08:26:15;;;;;;;11.23;6.22;;;;;;;37.26;33.97;100599.75;4991012;28;20129;-67
2021/07/22 08:28:43;;;;;;;11.60;5.95;;;;;;;37.35;33.77;100591.41;4990979;28;20082;-68
2021/07/22 08:31:10;;;;;;;12.98;6.72;;;;;;;37.28;33.84;100594.97;4989336;28;20097;-68
2021/07/22 08:33:39;;;;;;;9.93;6.95;;;;;;;37.35;33.88;100609.88;4990739;28;20039;-68
2021/07/22 08:36:06;;;;;;;14.32;6.05;;;;;;;37.53;33.78;100597.00;4990768;28;20050;-68
2021/07/22 08:38:34;;;;;;;11.93;6.32;;;;;;;37.72;33.51;100602.44;4990524;28;20030;-68
2021/07/22 08:41:02;;;;;;;12.45;6.70;;;;;;;37.76;33.32;100606.59;4990643;28;20098;-68
2021/07/22 08:43:33;;;;;;;14.80;5.78;;;;;;;37.79;33.17;100609.06;4990823;28;20042;-68
2021/07/22 08:46:00;;;;;;;9.63;6.55;;;;;;;37.80;32.83;100609.91;4989236;28;20504;-67
2021/07/22 08:48:30;;;;;;;10.27;6.47;;;;;;;37.94;32.35;100611.28;4989386;28;20042;-67
2021/07/22 08:51:00;;;;;;;11.82;5.82;;;;;;;38.07;32.24;100617.31;4989155;28;20050;-67
2021/07/22 08:53:27;;;;;;;10.32;6.70;;;;;;;38.03;32.19;100602.94;4989720;28;20491;-67
2021/07/22 08:55:58;;;;;;;15.77;7.07;;;;;;;38.06;31.56;100602.66;4989691;28;20404;-67
2021/07/22 08:58:27;;;;;;;14.00;6.47;;;;;;;38.08;31.64;100602.47;4983645;28;20058;-67
2021/07/22 09:00:56;;;;;;;14.10;6.10;;;;;;;38.01;31.41;100593.94;4988023;28;20038;-67
2021/07/22 09:03:23;;;;;;;10.60;6.00;;;;;;;37.88;31.37;100605.34;4989931;28;20034;-68
2021/07/22 09:05:50;;;;;;;11.07;5.88;;;;;;;37.87;30.97;100611.03;4990715;28;20045;-68
2021/07/22 09:08:19;;;;;;;12.35;6.28;;;;;;;37.86;31.40;100612.06;4990171;28;20057;-67
2021/07/22 09:11:05;;;;;;;10.45;6.47;;;;;;;38.04;31.17;100610.22;4990020;28;20403;-67
2021/07/22 09:13:33;;;;;;;11.45;7.00;;;;;;;38.15;30.52;100598.94;4970686;28;20039;-68
2021/07/22 09:16:00;;;;;;;10.90;6.43;;;;;;;38.19;30.56;100607.78;4980138;28;20121;-68
2021/07/22 09:18:31;;;;;;;15.30;7.00;;;;;;;38.04;30.28;100603.81;4990185;28;20061;-67
2021/07/22 09:20:58;;;;;;;11.60;6.55;;;;;;;38.00;29.62;100605.13;4989339;28;20048;-67
2021/07/22 09:23:28;;;;;;;13.82;6.90;;;;;;;38.02;29.79;100586.53;4988628;28;20030;-67
2021/07/22 09:25:56;;;;;;;11.40;5.50;;;;;;;38.11;29.02;100597.53;4989926;28;20042;-67
2021/07/22 09:28:25;;;;;;;13.88;6.43;;;;;;;38.26;29.06;100604.22;4988708;28;20046;-68
2021/07/22 09:30:56;;;;;;;11.60;6.85;;;;;;;38.47;28.62;100597.47;4987105;28;20049;-68
2021/07/22 09:33:34;;;;;;;10.43;6.38;;;;;;;38.60;28.33;100604.34;4989139;28;20065;-68
2021/07/22 09:36:01;;;;;;;9.98;6.28;;;;;;;38.68;28.30;100595.28;5001931;28;20096;-67
2021/07/22 09:38:30;;;;;;;12.25;6.18;;;;;;;38.67;28.08;100599.91;5010310;28;20054;-67
2021/07/22 09:40:58;;;;;;;12.80;5.97;;;;;;;38.56;27.61;100585.53;5004815;28;20061;-68
2021/07/22 09:43:43;;;;;;;9.93;6.05;;;;;;;38.49;27.34;100596.34;4992809;28;20046;-68
2021/07/22 09:46:10;;;;;;;9.77;6.00;;;;;;;38.28;27.28;100593.00;4993943;28;20042;-67
2021/07/22 09:48:38;;;;;;;12.88;6.10;;;;;;;38.33;27.48;100593.44;4994167;28;20054;-68
2021/07/22 09:51:06;;;;;;;10.65;6.70;;;;;;;38.25;27.54;100579.56;4994185;28;20054;-67
2021/07/22 09:53:34;;;;;;;11.23;6.03;;;;;;;38.31;27.50;100587.19;4994246;28;20042;-67
2021/07/22 09:56:02;;;;;;;12.65;6.05;;;;;;;38.32;27.29;100588.94;4993976;28;20058;-67
2021/07/22 09:58:31;;;;;;;10.55;6.15;;;;;;;38.40;27.06;100583.44;4993573;28;20061;-67
2021/07/22 10:01:01;;;;;;;11.55;5.93;;;;;;;38.16;27.32;100563.94;4992048;28;20070;-69
2021/07/22 10:03:34;;;;;;;8.75;5.63;;;;;;;38.04;27.37;100576.25;4982496;28;20042;-67
2021/07/22 10:06:06;;;;;;;12.10;6.50;;;;;;;37.94;27.08;100579.06;4998637;28;20046;-70
2021/07/22 10:08:36;;;;;;;12.10;6.90;;;;;;;37.73;27.22;100584.88;5003156;28;20038;-68
2021/07/22 10:11:06;;;;;;;10.27;6.32;;;;;;;37.71;27.45;100580.50;4997213;28;20053;-68
2021/07/22 10:13:35;;;;;;;10.85;6.13;;;;;;;37.59;27.70;100587.28;4994616;28;20035;-68
2021/07/22 10:16:08;;;;;;;18.58;7.32;;;;;;;37.45;28.17;100589.50;4981221;28;20050;-68
2021/07/22 10:18:41;;;;;;;11.75;6.25;;;;;;;37.37;28.58;100592.13;4993295;28;20518;-68
2021/07/22 10:21:10;;;;;;;;;;;;;;;37.30;28.69;100579.13;4995232;28;20057;-69
2021/07/22 10:23:44;;;;;;;12.15;6.63;;;;;;;37.48;28.35;100582.81;4996494;28;20291;-69
2021/07/22 10:26:13;;;;;;;12.18;6.10;;;;;;;37.52;28.62;100592.50;5002818;28;20049;-69
2021/07/22 10:28:45;;;;;;;10.07;6.70;;;;;;;37.52;28.42;100584.22;5011645;28;20041;-69
2021/07/22 10:31:13;;;;;;;12.55;6.35;;;;;;;37.37;28.65;100574.72;5001826;28;20038;-70
2021/07/22 10:33:42;;;;;;;11.93;6.80;;;;;;;37.31;28.67;100602.91;5008634;28;20049;-69
2021/07/22 10:36:10;;;;;;;12.18;6.30;;;;;;;37.06;28.95;100586.03;4997290;28;20042;-70
2021/07/22 10:38:46;;;;;;;11.55;6.70;;;;;;;37.10;28.98;100587.44;5000204;28;20048;-71
2021/07/22 10:41:36;;;;;;;12.43;6.35;;;;;;;37.10;28.96;100578.31;4989554;28;20050;-70
2021/07/22 10:44:04;;;;;;;11.57;6.38;;;;;;;36.86;29.35;100573.34;4993346;28;20030;-71
2021/07/22 10:46:54;;;;;;;18.25;7.00;;;;;;;36.72;29.52;100571.06;4994308;28;20049;-71
2021/07/22 10:49:37;;;;;;;12.13;6.32;;;;;;;36.68;29.88;100586.16;4992736;28;20050;-70
2021/07/22 10:52:05;;;;;;;12.47;6.57;;;;;;;36.76;30.03;100585.41;4991357;28;20038;-70
2021/07/22 10:54:53;;;;;;;12.63;6.30;;;;;;;36.81;29.83;100572.94;4991807;28;20050;-69
2021/07/22 10:57:39;;;;;;;16.25;7.93;;;;;;;36.76;30.18;100585.41;4982419;28;20046;-69
2021/07/22 11:00:08;;;;;;;17.17;6.80;;;;;;;36.87;30.37;100588.84;4987657;28;20042;-69
2021/07/22 11:02:49;;;;;;;14.48;7.07;;;;;;;37.15;30.11;100587.03;4993950;28;20113;-70
2021/07/22 11:05:49;;;;;;;12.35;7.35;;;;;;;37.33;30.50;100581.59;4993379;28;20093;-68
2021/07/22 11:08:20;;;;;;;12.55;6.95;;;;;;;37.46;30.87;100565.56;4977615;28;20085;-68
2021/07/22 11:10:54;;;;;;;11.77;6.57;;;;;;;37.68;30.37;100573.41;4990149;28;20519;-68
2021/07/22 11:13:41;;;;;;;14.80;7.25;;;;;;;37.92;30.44;100563.69;4991209;28;20044;-69
2021/07/22 11:16:18;;;;;;;11.18;6.70;;;;;;;37.97;30.72;100578.72;4985045;28;20050;-68
2021/07/22 11:18:49;;;;;;;14.52;7.20;;;;;;;38.12;31.02;100570.81;4990898;28;20614;-68
2021/07/22 11:21:19;;;;;;;10.98;6.45;;;;;;;38.12;31.01;100565.28;4985953;28;20072;-68
2021/07/22 11:24:01;;;;;;;10.45;6.68;;;;;;;38.13;31.23;100567.91;4969333;28;20054;-68